Time;durP1;ratioP1;P1;durP2;ratioP2;P2;SDS_P1;SDS_P2;PMS_P1;PMS_P2;Temp;Humidity;BMP_temperature;BMP_pressure;BME280_temperature;BME280_humidity;BME280_pressure;Samples;Min_cycle;Max_cycle;Signal;HPM_P1;HPM_P2
2022/09/07 00:00:30;;;;;;;2.70;2.50;;;20.50;99.90;;;;;;5028987;28;20255;-62
2022/09/07 00:02:56;;;;;;;2.80;2.60;;;20.60;99.90;;;;;;5050515;28;20247;-61
2022/09/07 00:05:21;;;;;;;2.57;2.37;;;20.60;99.90;;;;;;5048663;28;20186;-61
2022/09/07 00:07:47;;;;;;;3.13;2.50;;;20.60;99.90;;;;;;5046092;28;20209;-61
2022/09/07 00:10:12;;;;;;;3.93;2.40;;;20.60;99.90;;;;;;5046212;28;20230;-61
2022/09/07 00:12:38;;;;;;;3.97;2.30;;;20.70;99.90;;;;;;5050580;28;20189;-61
2022/09/07 00:15:08;;;;;;;3.10;2.30;;;20.80;99.90;;;;;;5049993;28;20178;-61
2022/09/07 00:17:34;;;;;;;2.92;2.05;;;20.70;99.90;;;;;;5027597;28;20714;-61
2022/09/07 00:19:59;;;;;;;3.73;2.10;;;20.80;99.90;;;;;;5048377;28;20229;-61
2022/09/07 00:22:25;;;;;;;2.00;1.90;;;20.80;99.90;;;;;;5049857;28;21007;-61
2022/09/07 00:24:51;;;;;;;4.60;2.23;;;20.80;99.90;;;;;;5046757;28;20555;-62
2022/09/07 00:27:16;;;;;;;3.20;2.47;;;20.90;99.90;;;;;;5049724;28;20284;-61
2022/09/07 00:29:42;;;;;;;4.03;2.57;;;21.10;99.90;;;;;;5044292;28;20216;-61
2022/09/07 00:32:08;;;;;;;2.93;2.47;;;20.90;99.90;;;;;;5043835;28;20189;-61
2022/09/07 00:34:33;;;;;;;2.57;2.37;;;20.90;99.90;;;;;;5049903;28;20204;-61
2022/09/07 00:36:59;;;;;;;4.17;2.70;;;20.90;99.90;;;;;;5048689;28;20205;-61
2022/09/07 00:39:25;;;;;;;2.80;2.20;;;20.90;99.90;;;;;;5041529;28;20185;-60
2022/09/07 00:41:50;;;;;;;3.03;2.07;;;21.00;99.90;;;;;;5049588;28;20201;-61
2022/09/07 00:44:41;;;;;;;4.07;2.57;;;21.00;99.90;;;;;;5046639;28;20185;-61
2022/09/07 00:47:14;;;;;;;2.67;2.43;;;21.10;99.90;;;;;;5045979;28;20213;-61
2022/09/07 00:49:42;;;;;;;2.53;2.33;;;21.10;99.90;;;;;;5050244;28;20538;-61
2022/09/07 00:52:09;;;;;;;3.10;2.50;;;21.00;99.90;;;;;;5049129;28;20178;-61
2022/09/07 00:54:44;;;;;;;3.45;2.30;;;21.00;99.90;;;;;;5041624;28;20609;-61
2022/09/07 00:57:10;;;;;;;2.28;2.10;;;21.00;99.90;;;;;;5044672;28;20247;-61
2022/09/07 00:59:41;;;;;;;2.92;2.63;;;21.00;99.90;;;;;;5048379;28;20239;-61
2022/09/07 01:02:07;;;;;;;2.50;2.30;;;21.00;99.90;;;;;;5047130;28;20192;-61
2022/09/07 01:04:33;;;;;;;4.82;2.65;;;21.00;99.90;;;;;;5048638;28;20243;-61
2022/09/07 01:07:00;;;;;;;3.25;2.45;;;20.90;99.90;;;;;;5045556;28;20250;-60
2022/09/07 01:09:27;;;;;;;2.92;2.40;;;20.80;99.90;;;;;;5042922;28;20189;-61
2022/09/07 01:11:56;;;;;;;4.38;2.50;;;20.70;99.90;;;;;;5049440;28;20273;-61
2022/09/07 01:14:28;;;;;;;3.33;2.47;;;20.70;99.90;;;;;;5044519;28;20189;-60
2022/09/07 01:17:18;;;;;;;2.60;2.40;;;20.70;99.90;;;;;;5049058;28;20968;-61
2022/09/07 01:20:03;;;;;;;2.53;2.30;;;20.70;99.90;;;;;;5045474;28;20292;-61
2022/09/07 01:22:50;;;;;;;3.10;2.70;;;20.60;99.90;;;;;;5045505;28;20584;-61
2022/09/07 01:25:33;;;;;;;3.88;2.75;;;20.60;99.90;;;;;;5044199;28;20188;-63
2022/09/07 01:28:12;;;;;;;3.70;2.38;;;20.70;99.90;;;;;;5049073;28;20189;-59
2022/09/07 01:30:44;;;;;;;3.30;2.22;;;20.70;99.90;;;;;;5045591;28;20228;-61
2022/09/07 01:33:23;;;;;;;2.42;2.22;;;20.60;99.90;;;;;;5044990;28;20196;-61
2022/09/07 01:36:14;;;;;;;3.35;2.30;;;20.60;99.90;;;;;;5049774;28;20183;-61
2022/09/07 01:38:42;;;;;;;3.33;2.03;;;20.50;99.90;;;;;;5044661;28;20243;-62
2022/09/07 01:41:20;;;;;;;4.43;2.53;;;20.60;99.90;;;;;;5048005;28;20961;-61
2022/09/07 01:44:13;;;;;;;2.95;2.65;;;20.60;99.90;;;;;;5047551;28;20476;-61
2022/09/07 01:46:50;;;;;;;3.05;2.30;;;20.60;99.90;;;;;;5049018;28;20697;-61
2022/09/07 01:49:29;;;;;;;2.53;2.33;;;20.70;99.90;;;;;;5047918;28;20211;-61
2022/09/07 01:52:01;;;;;;;2.55;2.25;;;20.70;99.90;;;;;;5051238;28;20214;-61
2022/09/07 01:54:37;;;;;;;3.28;2.55;;;20.80;99.90;;;;;;5050719;28;20285;-61
2022/09/07 01:57:20;;;;;;;3.17;2.80;;;20.90;99.90;;;;;;5050104;28;20240;-61
2022/09/07 02:00:08;;;;;;;3.30;2.30;;;20.90;99.90;;;;;;5048808;28;20244;-61
2022/09/07 02:02:43;;;;;;;3.67;2.90;;;20.90;99.90;;;;;;5050028;28;20186;-61
2022/09/07 02:05:40;;;;;;;4.70;2.60;;;20.90;99.90;;;;;;5044542;28;20601;-61
2022/09/07 02:08:12;;;;;;;2.60;2.22;;;20.90;99.90;;;;;;5036607;28;20248;-62
2022/09/07 02:10:49;;;;;;;3.00;2.33;;;20.90;99.90;;;;;;5051453;28;20613;-61
2022/09/07 02:13:16;;;;;;;2.70;2.33;;;20.90;99.90;;;;;;5052846;28;20439;-61
2022/09/07 02:15:50;;;;;;;3.80;2.40;;;20.90;99.90;;;;;;5052772;28;20189;-60
2022/09/07 02:18:16;;;;;;;2.88;2.65;;;20.80;99.90;;;;;;5043569;28;20229;-61
2022/09/07 02:20:52;;;;;;;3.33;2.40;;;21.20;99.90;;;;;;5051210;28;20205;-61
2022/09/07 02:23:32;;;;;;;6.03;2.47;;;20.80;99.90;;;;;;5051636;28;20192;-61
2022/09/07 02:26:09;;;;;;;3.90;2.38;;;20.90;99.90;;;;;;5051872;28;20286;-61
2022/09/07 02:28:37;;;;;;;5.32;3.22;;;20.80;99.90;;;;;;5044175;28;20190;-61
2022/09/07 02:31:03;;;;;;;5.43;2.90;;;20.80;99.90;;;;;;5046209;28;20599;-61
2022/09/07 02:33:29;;;;;;;4.33;2.57;;;20.80;99.90;;;;;;5050780;28;20222;-61
2022/09/07 02:35:56;;;;;;;3.13;2.35;;;20.80;99.90;;;;;;5050357;28;20510;-61
2022/09/07 02:38:22;;;;;;;3.87;2.83;;;20.80;99.90;;;;;;5044605;28;20206;-60
2022/09/07 02:40:55;;;;;;;4.20;2.50;;;20.80;99.90;;;;;;5048430;28;20452;-61
2022/09/07 02:43:22;;;;;;;3.20;2.85;;;20.50;99.90;;;;;;5047084;28;21031;-61
2022/09/07 02:45:59;;;;;;;3.53;2.65;;;20.80;99.90;;;;;;5051949;28;20554;-61
2022/09/07 02:48:25;;;;;;;2.90;2.40;;;20.80;99.90;;;;;;5047929;28;20650;-61
2022/09/07 02:51:08;;;;;;;3.87;2.47;;;20.80;99.90;;;;;;5052138;28;20208;-61
2022/09/07 02:53:51;;;;;;;3.30;2.60;;;20.90;99.90;;;;;;5046038;28;20200;-60
2022/09/07 02:56:25;;;;;;;5.32;2.75;;;20.90;99.90;;;;;;5047523;28;20254;-59
2022/09/07 02:59:06;;;;;;;4.78;3.03;;;20.80;99.90;;;;;;5050260;28;20202;-60
2022/09/07 03:01:55;;;;;;;3.13;2.80;;;21.50;99.90;;;;;;5049825;28;20286;-60
2022/09/07 03:04:23;;;;;;;4.82;2.65;;;21.00;99.90;;;;;;5043996;28;20204;-60
2022/09/07 03:06:56;;;;;;;5.05;3.17;;;21.00;99.90;;;;;;5046685;28;20658;-59
2022/09/07 03:09:27;;;;;;;4.32;2.65;;;21.10;99.90;;;;;;5039145;28;20217;-59
2022/09/07 03:11:53;;;;;;;3.05;2.85;;;21.00;99.90;;;;;;5048276;28;20186;-59
2022/09/07 03:14:21;;;;;;;4.85;2.83;;;21.10;99.90;;;;;;5047200;28;20181;-59
2022/09/07 03:16:49;;;;;;;3.15;2.75;;;21.10;99.90;;;;;;5033484;28;20240;-59
2022/09/07 03:19:15;;;;;;;6.72;2.83;;;20.70;99.90;;;;;;5046631;28;20717;-59
2022/09/07 03:21:40;;;;;;;3.60;3.30;;;21.20;99.90;;;;;;5047122;28;20205;-59
2022/09/07 03:24:06;;;;;;;3.60;3.10;;;21.20;99.90;;;;;;5049048;28;20656;-60
2022/09/07 03:26:32;;;;;;;4.67;3.27;;;21.20;99.90;;;;;;5051325;28;20518;-59
2022/09/07 03:28:58;;;;;;;3.87;3.20;;;21.00;99.90;;;;;;5050892;28;20508;-59
2022/09/07 03:31:24;;;;;;;4.20;3.40;;;21.10;99.90;;;;;;5045651;28;20296;-60
2022/09/07 03:33:49;;;;;;;3.67;2.90;;;21.10;99.90;;;;;;5051114;28;20272;-60
2022/09/07 03:36:15;;;;;;;3.70;2.83;;;21.20;99.90;;;;;;5047675;28;20178;-60
2022/09/07 03:38:41;;;;;;;4.10;3.20;;;21.10;99.90;;;;;;5047235;28;22192;-60
2022/09/07 03:41:06;;;;;;;4.90;4.10;;;21.10;99.90;;;;;;5049805;28;20213;-60
2022/09/07 03:43:33;;;;;;;3.60;3.30;;;20.90;99.90;;;;;;5051001;28;20186;-60
2022/09/07 03:46:01;;;;;;;3.60;3.05;;;20.90;99.90;;;;;;5047620;28;20522;-60
2022/09/07 03:48:33;;;;;;;3.53;3.17;;;20.80;99.90;;;;;;5045425;28;20191;-59
2022/09/07 03:51:03;;;;;;;3.97;3.58;;;20.80;99.90;;;;;;5050290;28;20258;-60
2022/09/07 03:53:33;;;;;;;4.40;3.20;;;20.60;99.90;;;;;;5045529;28;20178;-60
2022/09/07 03:56:01;;;;;;;3.50;3.20;;;20.40;99.90;;;;;;5048511;28;20654;-60
2022/09/07 03:58:31;;;;;;;4.43;3.83;;;20.30;99.90;;;;;;5049169;28;20296;-60
2022/09/07 04:00:58;;;;;;;5.53;3.40;;;20.40;99.90;;;;;;5047742;28;20229;-60
2022/09/07 04:03:23;;;;;;;3.50;3.20;;;20.30;99.90;;;;;;5047507;28;20202;-60
2022/09/07 04:05:49;;;;;;;4.67;3.27;;;20.40;99.90;;;;;;5050143;28;20196;-60
2022/09/07 04:08:14;;;;;;;5.30;3.83;;;20.10;99.90;;;;;;5050272;28;20227;-60
2022/09/07 04:10:40;;;;;;;4.67;3.20;;;20.30;99.90;;;;;;5044934;28;20209;-60
2022/09/07 04:13:07;;;;;;;4.13;3.37;;;20.20;99.90;;;;;;5050294;28;20200;-59
2022/09/07 04:15:33;;;;;;;4.15;3.55;;;20.30;99.90;;;;;;5050171;28;20482;-59
2022/09/07 04:17:59;;;;;;;4.35;3.95;;;20.70;99.90;;;;;;5048776;28;20208;-60
2022/09/07 04:20:25;;;;;;;4.25;3.85;;;20.30;99.90;;;;;;5037760;28;20335;-60
2022/09/07 04:22:51;;;;;;;7.30;3.53;;;20.30;99.90;;;;;;5048902;28;20268;-59
2022/09/07 04:25:17;;;;;;;4.10;3.70;;;20.10;99.90;;;;;;5040579;28;20193;-60
2022/09/07 04:27:42;;;;;;;6.30;4.80;;;20.00;99.90;;;;;;5032038;28;20617;-60
2022/09/07 04:30:09;;;;;;;4.40;3.40;;;20.00;99.90;;;;;;5045961;28;20288;-59
2022/09/07 04:32:35;;;;;;;3.85;3.42;;;20.10;99.90;;;;;;5026512;28;20272;-59
2022/09/07 04:35:00;;;;;;;4.67;3.13;;;20.00;99.90;;;;;;5049436;28;20272;-59
2022/09/07 04:37:26;;;;;;;3.70;3.40;;;20.00;99.90;;;;;;5042195;28;20213;-59
2022/09/07 04:39:51;;;;;;;4.77;3.27;;;20.00;99.90;;;;;;5029333;28;20292;-59
2022/09/07 04:42:17;;;;;;;3.40;3.10;;;20.00;99.90;;;;;;5031941;28;20173;-59
2022/09/07 04:44:43;;;;;;;5.20;3.57;;;20.00;99.90;;;;;;5047219;28;20184;-60
2022/09/07 04:47:09;;;;;;;3.77;3.47;;;20.00;99.90;;;;;;5028347;28;20439;-60
2022/09/07 04:49:34;;;;;;;4.27;3.40;;;19.90;99.90;;;;;;5040210;28;20197;-59
2022/09/07 04:52:00;;;;;;;8.33;4.50;;;19.50;99.90;;;;;;5046993;28;20189;-59
2022/09/07 04:54:26;;;;;;;3.77;2.97;;;19.90;99.90;;;;;;5044627;28;20193;-59
2022/09/07 04:56:51;;;;;;;5.77;3.83;;;20.30;99.90;;;;;;5047474;28;20692;-59
2022/09/07 04:59:18;;;;;;;5.30;3.67;;;19.90;99.90;;;;;;5044642;28;20197;-59
2022/09/07 05:01:44;;;;;;;4.50;4.05;;;19.90;99.90;;;;;;5043505;28;22999;-59
2022/09/07 05:04:09;;;;;;;8.67;5.70;;;19.90;99.90;;;;;;5044854;28;20189;-59
2022/09/07 05:06:35;;;;;;;4.50;4.10;;;19.70;99.90;;;;;;5046284;28;20189;-59
2022/09/07 05:09:01;;;;;;;6.43;3.83;;;19.60;99.90;;;;;;5046324;28;20185;-59
2022/09/07 05:11:27;;;;;;;5.40;4.53;;;19.60;99.90;;;;;;5042062;28;20670;-59
2022/09/07 05:13:55;;;;;;;4.35;3.95;;;19.60;99.90;;;;;;5043610;28;20205;-59
2022/09/07 05:16:22;;;;;;;6.13;4.63;;;19.60;99.90;;;;;;5043726;28;20200;-59
2022/09/07 05:18:52;;;;;;;6.18;4.10;;;19.60;99.90;;;;;;5042056;28;20177;-60
2022/09/07 05:21:21;;;;;;;5.25;4.00;;;20.00;99.90;;;;;;5042552;28;20728;-60
2022/09/07 05:23:54;;;;;;;6.00;3.75;;;19.60;99.90;;;;;;5048207;28;20222;-60
2022/09/07 05:26:22;;;;;;;6.18;3.80;;;19.60;99.90;;;;;;5045715;28;20544;-59
2022/09/07 05:28:48;;;;;;;5.63;4.35;;;19.60;99.90;;;;;;5046519;28;20251;-60
2022/09/07 05:31:18;;;;;;;4.47;4.07;;;19.60;99.90;;;;;;5049167;28;20220;-60
2022/09/07 05:33:49;;;;;;;4.72;4.32;;;19.50;99.90;;;;;;5044472;28;20217;-60
2022/09/07 05:36:15;;;;;;;4.07;3.70;;;19.70;99.90;;;;;;5047094;28;20189;-60
2022/09/07 05:38:41;;;;;;;6.57;4.40;;;19.70;99.90;;;;;;5028312;28;20208;-60
2022/09/07 05:41:18;;;;;;;6.90;5.20;;;19.60;99.90;;;;;;5048766;28;20458;-60
2022/09/07 05:43:44;;;;;;;5.00;4.50;;;19.40;99.90;;;;;;5047505;28;20545;-60
2022/09/07 05:46:11;;;;;;;5.30;4.03;;;19.70;99.90;;;;;;5047728;28;20247;-60
2022/09/07 05:48:37;;;;;;;7.13;4.70;;;19.80;99.90;;;;;;5047099;28;20689;-60
2022/09/07 05:51:04;;;;;;;5.30;4.30;;;19.80;99.90;;;;;;5044122;28;20197;-60
2022/09/07 05:53:30;;;;;;;4.95;4.55;;;19.60;99.90;;;;;;5047323;28;20554;-60
2022/09/07 05:55:59;;;;;;;7.28;4.70;;;20.00;99.90;;;;;;5029294;28;20185;-59
2022/09/07 05:58:26;;;;;;;5.32;4.57;;;20.00;99.90;;;;;;5027067;28;20279;-61
2022/09/07 06:00:52;;;;;;;7.90;4.47;;;20.10;99.90;;;;;;5041453;28;20202;-61
2022/09/07 06:03:17;;;;;;;7.43;4.60;;;20.20;99.90;;;;;;5047384;28;20555;-61
2022/09/07 06:05:43;;;;;;;6.50;4.97;;;20.30;99.90;;;;;;5049055;28;20232;-61
2022/09/07 06:08:08;;;;;;;4.40;4.00;;;20.40;99.90;;;;;;5048228;28;20180;-61
2022/09/07 06:10:36;;;;;;;4.20;3.90;;;20.40;99.90;;;;;;5046582;28;20201;-61
2022/09/07 06:13:03;;;;;;;6.25;4.70;;;20.60;99.90;;;;;;5047945;28;20712;-61
2022/09/07 06:15:31;;;;;;;8.98;4.72;;;20.70;99.90;;;;;;5050529;28;20662;-61
2022/09/07 06:17:56;;;;;;;7.03;3.83;;;20.90;99.90;;;;;;5051045;28;20209;-59
2022/09/07 06:20:22;;;;;;;6.83;4.20;;;21.00;99.90;;;;;;5048771;28;20512;-59
2022/09/07 06:22:47;;;;;;;6.50;4.53;;;21.30;99.90;;;;;;5039538;28;20545;-60
2022/09/07 06:25:13;;;;;;;7.27;4.40;;;21.50;99.90;;;;;;5047858;28;20197;-61
2022/09/07 06:27:38;;;;;;;5.90;4.77;;;21.60;99.90;;;;;;5050917;28;20185;-55
2022/09/07 06:30:06;;;;;;;4.40;4.00;;;21.70;99.90;;;;;;5045702;28;20216;-54
2022/09/07 06:32:35;;;;;;;4.77;3.80;;;21.80;99.90;;;;;;5048077;28;20376;-54
2022/09/07 06:35:00;;;;;;;5.53;3.93;;;21.90;99.90;;;;;;5039499;28;20489;-62
2022/09/07 06:37:26;;;;;;;5.53;4.90;;;22.20;99.90;;;;;;5044100;28;20459;-59
2022/09/07 06:39:52;;;;;;;6.00;4.17;;;22.50;99.90;;;;;;5044650;28;20562;-61
2022/09/07 06:42:17;;;;;;;9.00;4.10;;;22.80;99.90;;;;;;5042142;28;20433;-70
2022/09/07 06:44:43;;;;;;;4.47;3.93;;;23.00;99.90;;;;;;5046585;28;20234;-62
2022/09/07 06:47:09;;;;;;;5.03;4.60;;;23.20;99.90;;;;;;5051965;28;20194;-63
2022/09/07 06:49:35;;;;;;;3.87;3.53;;;23.10;99.90;;;;;;5043575;28;21443;-58
2022/09/07 06:52:00;;;;;;;7.13;5.40;;;23.70;99.90;;;;;;5045519;28;20441;-59
2022/09/07 06:54:26;;;;;;;5.53;4.97;;;23.80;99.90;;;;;;5052825;28;20274;-60
2022/09/07 06:56:52;;;;;;;6.73;5.07;;;24.00;99.90;;;;;;5044963;28;20290;-62
2022/09/07 06:59:17;;;;;;;6.43;3.70;;;23.90;99.90;;;;;;5048317;28;20430;-62
2022/09/07 07:01:43;;;;;;;5.70;4.03;;;24.00;99.90;;;;;;5044681;28;20678;-61
2022/09/07 07:04:09;;;;;;;6.53;4.10;;;24.10;99.90;;;;;;5046275;28;20197;-60
2022/09/07 07:06:36;;;;;;;5.00;4.50;;;24.10;99.90;;;;;;5048893;28;20186;-60
2022/09/07 07:09:03;;;;;;;6.13;3.00;;;24.60;99.90;;;;;;5049348;28;20189;-59
2022/09/07 07:11:29;;;;;;;5.17;3.50;;;25.30;99.50;;;;;;5044440;28;20479;-60
2022/09/07 07:13:56;;;;;;;6.33;3.67;;;27.20;97.30;;;;;;5046345;28;20986;-59
2022/09/07 07:16:22;;;;;;;4.77;3.30;;;29.20;92.80;;;;;;5049474;28;20443;-60
2022/09/07 07:18:51;;;;;;;6.17;3.77;;;30.50;88.90;;;;;;5029608;28;20462;-59
2022/09/07 07:21:17;;;;;;;5.27;2.83;;;32.60;81.00;;;;;;5039621;28;20190;-58
2022/09/07 07:23:43;;;;;;;9.00;5.00;;;34.70;73.60;;;;;;5045956;28;20814;-58
2022/09/07 07:26:15;;;;;;;5.90;3.60;;;36.50;65.10;;;;;;5047868;28;20436;-64
2022/09/07 07:28:46;;;;;;;5.20;3.47;;;37.40;59.20;;;;;;5046449;28;20440;-59
2022/09/07 07:31:12;;;;;;;3.93;3.17;;;37.90;57.00;;;;;;5044772;28;20459;-59
2022/09/07 07:33:38;;;;;;;2.90;2.70;;;38.90;54.10;;;;;;5044463;28;20444;-63
2022/09/07 07:36:29;;;;;;;6.87;2.97;;;38.40;51.70;;;;;;5029604;28;20475;-60
2022/09/07 07:38:56;;;;;;;4.60;2.83;;;39.30;50.70;;;;;;5046904;28;20822;-57
2022/09/07 07:41:26;;;;;;;4.70;2.70;;;39.50;50.10;;;;;;5049353;28;20960;-61
2022/09/07 07:43:57;;;;;;;3.03;2.53;;;40.40;48.80;;;;;;5047514;28;20432;-59
2022/09/07 07:46:26;;;;;;;3.90;3.10;;;41.00;46.80;;;;;;5044925;28;20520;-57
2022/09/07 07:48:52;;;;;;;4.83;2.50;;;41.40;45.70;;;;;;5044429;28;20432;-64
2022/09/07 07:51:18;;;;;;;3.90;2.60;;;41.20;44.60;;;;;;5045464;28;20498;-64
2022/09/07 07:53:44;;;;;;;3.10;2.90;;;41.40;44.60;;;;;;5047447;28;21018;-63
2022/09/07 07:56:11;;;;;;;4.57;2.93;;;42.20;44.00;;;;;;5028658;28;20432;-64
2022/09/07 07:58:38;;;;;;;5.53;3.30;;;42.70;42.10;;;;;;5044545;28;20471;-63
2022/09/07 08:01:06;;;;;;;3.93;3.07;;;42.70;41.40;;;;;;5024332;28;20467;-63
2022/09/07 08:03:37;;;;;;;6.43;5.37;;;42.00;42.50;;;;;;5048230;28;20457;-64
2022/09/07 08:06:06;;;;;;;4.97;2.53;;;42.40;41.20;;;;;;5046841;28;20440;-64
2022/09/07 08:08:34;;;;;;;3.80;2.83;;;42.70;40.70;;;;;;5037547;28;20479;-61
2022/09/07 08:11:08;;;;;;;4.80;2.87;;;42.40;41.00;;;;;;5048914;28;20464;-69
2022/09/07 08:13:39;;;;;;;5.03;3.07;;;41.40;40.90;;;;;;5048086;28;20493;-69
2022/09/07 08:16:05;;;;;;;3.67;3.10;;;41.20;42.00;;;;;;5030913;28;20439;-64
2022/09/07 08:18:34;;;;;;;3.40;3.10;;;41.40;42.30;;;;;;5045886;28;20474;-65
2022/09/07 08:21:01;;;;;;;5.33;3.00;;;42.20;40.90;;;;;;5045818;28;20471;-67
2022/09/07 08:23:27;;;;;;;3.50;2.70;;;42.60;39.90;;;;;;5028329;28;20456;-65
2022/09/07 08:25:54;;;;;;;4.87;2.60;;;43.40;39.40;;;;;;5046802;28;20443;-60
2022/09/07 08:28:22;;;;;;;6.80;3.40;;;42.90;38.40;;;;;;5045233;28;20571;-63
2022/09/07 08:30:48;;;;;;;5.73;3.10;;;42.30;39.50;;;;;;5048206;28;20913;-63
2022/09/07 08:33:13;;;;;;;5.63;2.90;;;41.30;40.30;;;;;;5047400;28;20443;-64
2022/09/07 08:35:40;;;;;;;4.97;3.07;;;41.20;40.70;;;;;;5044335;28;20190;-64
2022/09/07 08:38:05;;;;;;;5.17;2.90;;;39.40;42.40;;;;;;5044873;28;20220;-63
2022/09/07 08:40:35;;;;;;;4.13;3.10;;;40.20;42.80;;;;;;5040644;28;20460;-67
2022/09/07 08:43:16;;;;;;;3.70;3.27;;;40.70;42.40;;;;;;5051840;28;20547;-59
2022/09/07 08:45:47;;;;;;;6.23;3.43;;;39.40;43.00;;;;;;5022219;28;20432;-63
2022/09/07 08:48:19;;;;;;;4.20;3.00;;;39.50;43.10;;;;;;5043980;28;20444;-66
2022/09/07 08:50:55;;;;;;;8.17;3.63;;;37.90;44.80;;;;;;5041946;28;20767;-67
2022/09/07 08:53:23;;;;;;;4.60;3.00;;;37.20;46.10;;;;;;5045069;28;20913;-67
2022/09/07 08:56:03;;;;;;;4.67;3.33;;;36.80;47.60;;;;;;5043034;28;20952;-71
2022/09/07 08:58:44;;;;;;;3.73;3.10;;;35.20;49.30;;;;;;5046664;28;20866;-63
2022/09/07 09:01:11;;;;;;;4.30;2.97;;;34.20;51.80;;;;;;5049225;28;20524;-62
2022/09/07 09:03:38;;;;;;;3.50;2.77;;;33.50;53.70;;;;;;5052413;28;20446;-63
2022/09/07 09:06:22;;;;;;;3.80;2.87;;;32.50;55.00;;;;;;5051605;28;20496;-62
2022/09/07 09:08:55;;;;;;;4.17;2.60;;;31.90;57.60;;;;;;5048423;28;20456;-64
2022/09/07 09:11:43;;;;;;;3.50;2.80;;;31.80;58.00;;;;;;5049035;28;20562;-66
2022/09/07 09:14:27;;;;;;;4.40;3.70;;;31.60;58.60;;;;;;5052099;28;20445;-60
2022/09/07 09:16:59;;;;;;;4.63;3.80;;;30.90;61.10;;;;;;5047742;28;20456;-60
2022/09/07 09:19:33;;;;;;;4.10;2.70;;;30.10;63.20;;;;;;5048628;28;21190;-61
2022/09/07 09:22:18;;;;;;;3.03;2.53;;;29.90;65.20;;;;;;5049642;28;20549;-58
2022/09/07 09:24:52;;;;;;;4.33;3.53;;;29.70;66.60;;;;;;5048615;28;20480;-58
2022/09/07 09:27:17;;;;;;;5.20;3.60;;;29.60;66.90;;;;;;5045777;28;20789;-58
2022/09/07 09:29:43;;;;;;;5.33;3.20;;;29.70;66.80;;;;;;5052834;28;20485;-59
2022/09/07 09:32:32;;;;;;;2.83;2.57;;;29.30;68.60;;;;;;5049759;28;20243;-59
2022/09/07 09:35:09;;;;;;;4.40;3.03;;;28.70;70.10;;;;;;5048512;28;20183;-59
2022/09/07 09:37:37;;;;;;;5.27;2.87;;;28.60;72.00;;;;;;5050232;28;20520;-59
2022/09/07 09:40:04;;;;;;;6.03;3.13;;;28.60;72.30;;;;;;5047422;28;20497;-59
2022/09/07 09:42:33;;;;;;;6.43;3.43;;;29.00;72.60;;;;;;5051440;28;20947;-59
2022/09/07 09:45:09;;;;;;;5.97;3.47;;;29.40;70.80;;;;;;5049361;28;20532;-60
2022/09/07 09:47:35;;;;;;;3.00;2.60;;;29.70;69.80;;;;;;5046892;28;20440;-62
2022/09/07 09:50:06;;;;;;;3.70;2.90;;;29.80;68.80;;;;;;5049634;28;20502;-66
2022/09/07 09:52:35;;;;;;;8.27;2.80;;;30.00;67.90;;;;;;5049768;28;20439;-65
2022/09/07 09:55:03;;;;;;;5.10;3.20;;;29.50;67.70;;;;;;5044875;28;20452;-68
2022/09/07 09:57:50;;;;;;;6.13;3.67;;;29.40;69.80;;;;;;5048749;28;20558;-71
2022/09/07 10:00:18;;;;;;;5.37;3.37;;;29.20;70.40;;;;;;5047948;28;20454;-61
2022/09/07 10:02:58;;;;;;;3.60;2.90;;;29.00;71.30;;;;;;5048406;28;20471;-61
2022/09/07 10:05:35;;;;;;;4.07;3.30;;;28.80;71.90;;;;;;5053178;28;20443;-62
2022/09/07 10:08:02;;;;;;;5.67;3.30;;;28.50;71.60;;;;;;5049711;28;20530;-62
2022/09/07 10:10:30;;;;;;;3.60;2.70;;;28.70;71.70;;;;;;5045901;28;20998;-62
2022/09/07 10:12:56;;;;;;;4.07;2.73;;;28.50;70.80;;;;;;5052273;28;20466;-61
2022/09/07 10:15:40;;;;;;;5.80;3.13;;;28.50;71.10;;;;;;5050742;28;20441;-62
2022/09/07 10:18:13;;;;;;;3.73;3.33;;;28.30;72.10;;;;;;5048276;28;20509;-62
2022/09/07 10:20:39;;;;;;;5.27;2.97;;;28.50;74.10;;;;;;5049656;28;20461;-62
2022/09/07 10:23:17;;;;;;;5.17;3.50;;;28.50;74.30;;;;;;5048220;28;20570;-62
2022/09/07 10:25:43;;;;;;;6.40;3.70;;;28.40;74.40;;;;;;5048644;28;20565;-62
2022/09/07 10:28:12;;;;;;;5.37;3.30;;;28.00;75.70;;;;;;5044769;28;20518;-62
2022/09/07 10:30:51;;;;;;;5.43;3.10;;;27.90;77.10;;;;;;5045750;28;20225;-62
2022/09/07 10:33:49;;;;;;;3.93;3.57;;;27.90;77.80;;;;;;5046481;28;20456;-62
2022/09/07 10:36:18;;;;;;;4.20;3.23;;;27.90;79.30;;;;;;5042405;28;20439;-62
2022/09/07 10:38:55;;;;;;;5.50;3.70;;;27.80;78.70;;;;;;5048632;28;20967;-62
2022/09/07 10:41:34;;;;;;;5.67;4.03;;;27.80;78.60;;;;;;5048495;28;20476;-62
2022/09/07 10:44:01;;;;;;;6.07;3.40;;;28.00;78.40;;;;;;5047552;28;20432;-62
2022/09/07 10:46:52;;;;;;;6.33;3.20;;;28.10;78.30;;;;;;5049225;28;20537;-62
2022/09/07 10:49:50;;;;;;;4.97;2.70;;;28.10;76.70;;;;;;5043782;28;20593;-62
2022/09/07 10:52:37;;;;;;;3.70;2.77;;;28.00;76.70;;;;;;5020312;28;21008;-62
2022/09/07 10:55:25;;;;;;;6.10;3.10;;;28.00;77.10;;;;;;5029956;28;20446;-62
2022/09/07 10:58:11;;;;;;;5.47;3.60;;;27.80;78.10;;;;;;5037648;28;20475;-62
2022/09/07 11:01:14;;;;;;;3.80;3.40;;;27.80;78.90;;;;;;5047273;28;20849;-62
2022/09/07 11:03:52;;;;;;;5.70;3.30;;;27.80;78.30;;;;;;5050856;28;20432;-62
2022/09/07 11:06:24;;;;;;;10.00;5.40;;;27.90;79.30;;;;;;5046066;28;20551;-62
2022/09/07 11:09:28;;;;;;;5.00;4.53;;;27.90;80.10;;;;;;5046140;28;20564;-62
2022/09/07 11:12:06;;;;;;;4.43;3.90;;;27.80;80.60;;;;;;5008271;28;20935;-62
2022/09/07 11:14:48;;;;;;;3.60;3.03;;;27.70;81.30;;;;;;5028904;28;20572;-62
2022/09/07 11:17:23;;;;;;;4.47;3.57;;;27.70;81.90;;;;;;5045756;28;20465;-62
2022/09/07 11:20:26;;;;;;;6.10;3.37;;;27.80;81.70;;;;;;5041869;28;20490;-62
2022/09/07 11:23:31;;;;;;;6.33;3.43;;;27.90;80.60;;;;;;5047063;28;20949;-62
2022/09/07 11:26:13;;;;;;;3.40;3.10;;;27.80;81.50;;;;;;5026134;28;21200;-63
2022/09/07 11:28:47;;;;;;;4.23;3.57;;;27.90;81.60;;;;;;5042703;28;21017;-63
2022/09/07 11:31:23;;;;;;;6.27;4.30;;;28.10;81.60;;;;;;5038156;28;20956;-63
2022/09/07 11:34:14;;;;;;;3.80;3.30;;;28.00;80.80;;;;;;5029979;28;20948;-63
2022/09/07 11:36:48;;;;;;;6.37;3.20;;;28.20;79.30;;;;;;5044404;28;20543;-62
2022/09/07 11:39:43;;;;;;;5.43;3.10;;;28.20;78.10;;;;;;5023123;28;21004;-63
2022/09/07 11:42:32;;;;;;;4.13;3.73;;;28.30;78.70;;;;;;5045235;28;20802;-62
2022/09/07 11:45:11;;;;;;;7.10;3.90;;;28.20;78.80;;;;;;5049615;28;20979;-63
2022/09/07 11:47:58;;;;;;;8.40;3.20;;;28.10;79.30;;;;;;5048998;28;20965;-63
2022/09/07 11:50:24;;;;;;;5.33;3.33;;;28.20;78.90;;;;;;5043184;28;20995;-62
2022/09/07 11:53:06;;;;;;;7.10;3.63;;;28.20;79.60;;;;;;5039747;28;20488;-62
2022/09/07 11:55:40;;;;;;;5.80;3.50;;;28.40;78.70;;;;;;5040990;28;20469;-62
2022/09/07 11:58:26;;;;;;;5.80;2.60;;;28.60;77.80;;;;;;5042869;28;20473;-62
2022/09/07 12:01:13;;;;;;;6.20;3.37;;;28.60;77.10;;;;;;5047430;28;20466;-62
2022/09/07 12:04:00;;;;;;;4.13;3.40;;;28.50;77.00;;;;;;5045113;28;20434;-62
2022/09/07 12:06:52;;;;;;;5.30;3.40;;;28.50;77.30;;;;;;5050554;28;20835;-62
2022/09/07 12:09:51;;;;;;;5.80;4.00;;;28.50;78.10;;;;;;5027842;28;20839;-62
2022/09/07 12:12:45;;;;;;;3.53;3.20;;;28.50;76.20;;;;;;5047805;28;20444;-62
2022/09/07 12:15:45;;;;;;;3.93;3.20;;;28.30;76.50;;;;;;5027599;28;20909;-62
2022/09/07 12:18:25;;;;;;;4.43;3.50;;;28.10;76.60;;;;;;5034551;28;20549;-62
2022/09/07 12:20:51;;;;;;;3.50;2.50;;;28.20;74.20;;;;;;5048299;28;20462;-62
2022/09/07 12:23:23;;;;;;;5.57;2.80;;;28.30;73.50;;;;;;5047244;28;20450;-62
2022/09/07 12:25:50;;;;;;;4.83;3.00;;;28.50;73.40;;;;;;5042947;28;20472;-60
2022/09/07 12:28:22;;;;;;;4.07;2.63;;;28.70;73.80;;;;;;5043520;28;20469;-61
2022/09/07 12:30:55;;;;;;;3.50;3.20;;;28.90;72.30;;;;;;5044763;28;20928;-61
2022/09/07 12:33:28;;;;;;;5.07;2.80;;;29.00;70.90;;;;;;5046152;28;20431;-60
2022/09/07 12:35:59;;;;;;;3.20;2.40;;;28.80;71.80;;;;;;5048623;28;20973;-60
2022/09/07 12:38:34;;;;;;;4.37;3.23;;;28.90;71.50;;;;;;5042655;28;20477;-60
2022/09/07 12:41:21;;;;;;;4.30;3.00;;;28.90;72.70;;;;;;5031240;28;20818;-61
2022/09/07 12:43:46;;;;;;;4.90;3.00;;;29.00;71.20;;;;;;5048481;28;20457;-61
2022/09/07 12:46:31;;;;;;;6.43;2.80;;;29.00;70.20;;;;;;5029749;28;20475;-60
2022/09/07 12:49:10;;;;;;;3.40;2.67;;;29.00;69.20;;;;;;5045522;28;20189;-60
2022/09/07 12:51:38;;;;;;;5.10;3.00;;;29.10;68.60;;;;;;5021992;28;20462;-60
2022/09/07 12:54:26;;;;;;;2.70;2.50;;;29.30;67.20;;;;;;5046294;28;20474;-60
2022/09/07 12:57:02;;;;;;;4.43;2.63;;;29.30;67.60;;;;;;5046266;28;20470;-60
2022/09/07 12:59:44;;;;;;;2.83;2.63;;;28.90;65.30;;;;;;5049249;28;20496;-60
2022/09/07 13:02:40;;;;;;;4.60;3.23;;;29.10;65.40;;;;;;5044025;28;20443;-61
2022/09/07 13:05:16;;;;;;;2.60;2.40;;;29.40;67.50;;;;;;5043714;28;20804;-61
2022/09/07 13:07:54;;;;;;;4.53;3.20;;;29.50;65.40;;;;;;5047770;28;20858;-61
2022/09/07 13:10:29;;;;;;;3.93;3.20;;;29.50;65.50;;;;;;5045790;28;20550;-61
2022/09/07 13:13:01;;;;;;;3.97;3.10;;;29.60;66.10;;;;;;5034576;28;20794;-60